sensor_id;sensor_type;location;lat;lon;timestamp;temperature;humidity
25450;DHT22;13371;52.080;5.624;2022-12-22T00:02:27;11.90;99.90
25450;DHT22;13371;52.080;5.624;2022-12-22T00:05:12;11.70;99.90
25450;DHT22;13371;52.080;5.624;2022-12-22T00:07:57;11.80;99.90
25450;DHT22;13371;52.080;5.624;2022-12-22T00:10:41;11.60;99.90
25450;DHT22;13371;52.080;5.624;2022-12-22T00:13:25;11.90;99.90
25450;DHT22;13371;52.080;5.624;2022-12-22T00:16:10;11.70;99.90
25450;DHT22;13371;52.080;5.624;2022-12-22T00:18:54;11.90;99.90
25450;DHT22;13371;52.080;5.624;2022-12-22T00:21:38;12.00;99.90
25450;DHT22;13371;52.080;5.624;2022-12-22T00:24:22;11.90;99.90
25450;DHT22;13371;52.080;5.624;2022-12-22T00:27:14;11.90;99.90
25450;DHT22;13371;52.080;5.624;2022-12-22T00:29:59;11.90;99.90
25450;DHT22;13371;52.080;5.624;2022-12-22T00:32:43;11.70;99.90
25450;DHT22;13371;52.080;5.624;2022-12-22T00:35:28;11.80;99.90
25450;DHT22;13371;52.080;5.624;2022-12-22T00:38:17;11.60;99.90
25450;DHT22;13371;52.080;5.624;2022-12-22T00:41:02;11.80;99.90
25450;DHT22;13371;52.080;5.624;2022-12-22T00:43:46;11.80;99.90
25450;DHT22;13371;52.080;5.624;2022-12-22T00:46:30;11.90;99.90
25450;DHT22;13371;52.080;5.624;2022-12-22T00:49:17;12.00;99.90
25450;DHT22;13371;52.080;5.624;2022-12-22T00:52:02;12.20;99.90
25450;DHT22;13371;52.080;5.624;2022-12-22T00:54:46;12.00;99.90
25450;DHT22;13371;52.080;5.624;2022-12-22T00:57:31;11.90;99.90
25450;DHT22;13371;52.080;5.624;2022-12-22T01:00:18;12.00;99.90
25450;DHT22;13371;52.080;5.624;2022-12-22T01:03:03;12.00;99.90
25450;DHT22;13371;52.080;5.624;2022-12-22T01:05:48;12.20;99.90
25450;DHT22;13371;52.080;5.624;2022-12-22T01:08:36;12.00;99.90
25450;DHT22;13371;52.080;5.624;2022-12-22T01:11:20;12.00;99.90
25450;DHT22;13371;52.080;5.624;2022-12-22T01:14:09;12.30;99.90
25450;DHT22;13371;52.080;5.624;2022-12-22T01:16:54;12.60;99.90
25450;DHT22;13371;52.080;5.624;2022-12-22T01:19:38;12.80;99.90
25450;DHT22;13371;52.080;5.624;2022-12-22T01:22:22;12.70;99.90
25450;DHT22;13371;52.080;5.624;2022-12-22T01:25:12;12.40;99.90
25450;DHT22;13371;52.080;5.624;2022-12-22T01:27:57;12.50;99.90
25450;DHT22;13371;52.080;5.624;2022-12-22T01:30:41;12.30;99.90
25450;DHT22;13371;52.080;5.624;2022-12-22T01:33:25;12.10;99.90
25450;DHT22;13371;52.080;5.624;2022-12-22T01:36:10;12.20;99.90
25450;DHT22;13371;52.080;5.624;2022-12-22T01:38:54;12.30;99.90
25450;DHT22;13371;52.080;5.624;2022-12-22T01:41:38;12.10;99.90
25450;DHT22;13371;52.080;5.624;2022-12-22T01:44:22;11.60;99.90
25450;DHT22;13371;52.080;5.624;2022-12-22T01:50:13;11.70;99.90
25450;DHT22;13371;52.080;5.624;2022-12-22T01:52:58;12.10;99.90
25450;DHT22;13371;52.080;5.624;2022-12-22T01:55:44;12.40;99.90
25450;DHT22;13371;52.080;5.624;2022-12-22T01:58:32;12.50;99.90
25450;DHT22;13371;52.080;5.624;2022-12-22T02:01:17;12.70;99.90
25450;DHT22;13371;52.080;5.624;2022-12-22T02:04:02;12.80;99.90
25450;DHT22;13371;52.080;5.624;2022-12-22T02:06:48;13.00;99.90
25450;DHT22;13371;52.080;5.624;2022-12-22T02:09:43;12.80;99.90
25450;DHT22;13371;52.080;5.624;2022-12-22T02:16:25;13.00;99.90
25450;DHT22;13371;52.080;5.624;2022-12-22T02:22:48;13.00;99.90
25450;DHT22;13371;52.080;5.624;2022-12-22T02:25:57;12.90;99.90
25450;DHT22;13371;52.080;5.624;2022-12-22T02:28:43;12.90;99.90
25450;DHT22;13371;52.080;5.624;2022-12-22T02:31:34;13.00;99.90
25450;DHT22;13371;52.080;5.624;2022-12-22T02:34:19;12.70;99.90
25450;DHT22;13371;52.080;5.624;2022-12-22T02:37:14;12.90;99.90
25450;DHT22;13371;52.080;5.624;2022-12-22T02:40:15;12.60;99.90
25450;DHT22;13371;52.080;5.624;2022-12-22T02:46:08;12.90;99.90
25450;DHT22;13371;52.080;5.624;2022-12-22T02:49:01;12.80;99.90
25450;DHT22;13371;52.080;5.624;2022-12-22T02:51:51;12.80;99.90
25450;DHT22;13371;52.080;5.624;2022-12-22T02:54:38;12.60;99.90
25450;DHT22;13371;52.080;5.624;2022-12-22T02:57:22;12.80;99.90
25450;DHT22;13371;52.080;5.624;2022-12-22T03:00:07;13.00;99.90
25450;DHT22;13371;52.080;5.624;2022-12-22T03:02:51;13.00;99.90
25450;DHT22;13371;52.080;5.624;2022-12-22T03:05:35;13.10;99.90
25450;DHT22;13371;52.080;5.624;2022-12-22T03:08:19;13.10;99.90
25450;DHT22;13371;52.080;5.624;2022-12-22T03:11:03;13.00;99.90
25450;DHT22;13371;52.080;5.624;2022-12-22T03:13:48;12.90;99.90
25450;DHT22;13371;52.080;5.624;2022-12-22T03:16:32;13.00;99.90
25450;DHT22;13371;52.080;5.624;2022-12-22T03:19:16;13.10;99.90
25450;DHT22;13371;52.080;5.624;2022-12-22T03:22:00;13.00;99.90
25450;DHT22;13371;52.080;5.624;2022-12-22T03:24:44;13.10;99.90
25450;DHT22;13371;52.080;5.624;2022-12-22T03:27:28;13.30;99.90
25450;DHT22;13371;52.080;5.624;2022-12-22T03:29:54;13.20;99.90
25450;DHT22;13371;52.080;5.624;2022-12-22T03:32:19;13.30;99.90
25450;DHT22;13371;52.080;5.624;2022-12-22T03:34:45;13.40;99.90
25450;DHT22;13371;52.080;5.624;2022-12-22T03:37:10;13.40;99.90
25450;DHT22;13371;52.080;5.624;2022-12-22T03:39:36;13.40;99.90
25450;DHT22;13371;52.080;5.624;2022-12-22T03:42:01;13.50;99.90
25450;DHT22;13371;52.080;5.624;2022-12-22T03:44:45;13.60;99.90
25450;DHT22;13371;52.080;5.624;2022-12-22T03:47:30;13.60;99.90
25450;DHT22;13371;52.080;5.624;2022-12-22T03:49:56;13.60;99.90
25450;DHT22;13371;52.080;5.624;2022-12-22T03:52:22;13.00;99.90
25450;DHT22;13371;52.080;5.624;2022-12-22T03:54:47;12.90;99.90
25450;DHT22;13371;52.080;5.624;2022-12-22T03:57:13;13.00;99.90
25450;DHT22;13371;52.080;5.624;2022-12-22T03:59:38;13.10;99.90
25450;DHT22;13371;52.080;5.624;2022-12-22T04:02:05;13.30;99.90
25450;DHT22;13371;52.080;5.624;2022-12-22T04:04:31;13.20;99.90
25450;DHT22;13371;52.080;5.624;2022-12-22T04:06:57;13.20;99.90
25450;DHT22;13371;52.080;5.624;2022-12-22T04:09:22;13.40;99.90
25450;DHT22;13371;52.080;5.624;2022-12-22T04:11:49;13.50;99.90
25450;DHT22;13371;52.080;5.624;2022-12-22T04:14:34;13.60;99.90
25450;DHT22;13371;52.080;5.624;2022-12-22T04:17:00;13.80;99.90
25450;DHT22;13371;52.080;5.624;2022-12-22T04:19:25;13.90;99.90
25450;DHT22;13371;52.080;5.624;2022-12-22T04:21:51;14.00;99.90
25450;DHT22;13371;52.080;5.624;2022-12-22T04:24:18;13.90;99.90
25450;DHT22;13371;52.080;5.624;2022-12-22T04:26:43;13.90;99.90
25450;DHT22;13371;52.080;5.624;2022-12-22T04:29:09;14.00;99.90
25450;DHT22;13371;52.080;5.624;2022-12-22T04:31:34;13.60;99.90
25450;DHT22;13371;52.080;5.624;2022-12-22T04:34:00;13.60;99.90
25450;DHT22;13371;52.080;5.624;2022-12-22T04:36:26;13.70;99.90
25450;DHT22;13371;52.080;5.624;2022-12-22T04:38:51;13.80;99.90
25450;DHT22;13371;52.080;5.624;2022-12-22T04:41:17;13.90;99.90
25450;DHT22;13371;52.080;5.624;2022-12-22T04:43:42;13.90;99.90
25450;DHT22;13371;52.080;5.624;2022-12-22T04:46:08;13.80;99.90
25450;DHT22;13371;52.080;5.624;2022-12-22T04:48:34;13.80;99.90
25450;DHT22;13371;52.080;5.624;2022-12-22T04:51:00;13.80;99.90
25450;DHT22;13371;52.080;5.624;2022-12-22T04:53:27;13.90;99.90
25450;DHT22;13371;52.080;5.624;2022-12-22T04:56:01;13.90;99.90
25450;DHT22;13371;52.080;5.624;2022-12-22T04:58:28;13.90;99.90
25450;DHT22;13371;52.080;5.624;2022-12-22T05:00:54;14.00;99.90
25450;DHT22;13371;52.080;5.624;2022-12-22T05:03:19;13.90;99.90
25450;DHT22;13371;52.080;5.624;2022-12-22T05:05:45;13.80;99.90
25450;DHT22;13371;52.080;5.624;2022-12-22T05:08:10;13.80;99.90
25450;DHT22;13371;52.080;5.624;2022-12-22T05:10:36;13.60;99.90
25450;DHT22;13371;52.080;5.624;2022-12-22T05:13:02;13.70;99.90
25450;DHT22;13371;52.080;5.624;2022-12-22T05:15:30;13.80;99.90
25450;DHT22;13371;52.080;5.624;2022-12-22T05:17:56;13.90;99.90
25450;DHT22;13371;52.080;5.624;2022-12-22T05:20:23;14.00;99.90
25450;DHT22;13371;52.080;5.624;2022-12-22T05:22:49;14.00;99.90
25450;DHT22;13371;52.080;5.624;2022-12-22T05:25:15;14.10;99.90
25450;DHT22;13371;52.080;5.624;2022-12-22T05:27:46;14.10;99.90
25450;DHT22;13371;52.080;5.624;2022-12-22T05:30:13;14.10;99.90
25450;DHT22;13371;52.080;5.624;2022-12-22T05:32:39;14.10;99.90
25450;DHT22;13371;52.080;5.624;2022-12-22T05:35:05;14.10;99.90
25450;DHT22;13371;52.080;5.624;2022-12-22T05:37:31;14.10;99.90
25450;DHT22;13371;52.080;5.624;2022-12-22T05:39:56;14.10;99.90
25450;DHT22;13371;52.080;5.624;2022-12-22T05:42:22;14.20;99.90
25450;DHT22;13371;52.080;5.624;2022-12-22T05:45:19;14.10;99.90
25450;DHT22;13371;52.080;5.624;2022-12-22T05:47:50;14.20;99.90
25450;DHT22;13371;52.080;5.624;2022-12-22T05:50:18;14.00;99.90
25450;DHT22;13371;52.080;5.624;2022-12-22T05:52:44;14.10;99.90
25450;DHT22;13371;52.080;5.624;2022-12-22T05:55:11;14.10;99.90
25450;DHT22;13371;52.080;5.624;2022-12-22T05:57:36;14.00;99.90
25450;DHT22;13371;52.080;5.624;2022-12-22T06:00:09;14.00;99.90
25450;DHT22;13371;52.080;5.624;2022-12-22T06:02:35;13.80;99.90
25450;DHT22;13371;52.080;5.624;2022-12-22T06:05:00;13.80;99.90
25450;DHT22;13371;52.080;5.624;2022-12-22T06:07:26;13.70;99.90
25450;DHT22;13371;52.080;5.624;2022-12-22T06:09:51;13.80;99.90
25450;DHT22;13371;52.080;5.624;2022-12-22T06:12:17;13.80;99.90
25450;DHT22;13371;52.080;5.624;2022-12-22T06:14:43;13.70;99.90
25450;DHT22;13371;52.080;5.624;2022-12-22T06:17:08;13.70;99.90
25450;DHT22;13371;52.080;5.624;2022-12-22T06:19:34;13.70;99.90
25450;DHT22;13371;52.080;5.624;2022-12-22T06:21:59;13.50;99.90
25450;DHT22;13371;52.080;5.624;2022-12-22T06:24:25;13.60;99.90
25450;DHT22;13371;52.080;5.624;2022-12-22T06:26:51;13.60;99.90
25450;DHT22;13371;52.080;5.624;2022-12-22T06:29:16;13.60;99.90
25450;DHT22;13371;52.080;5.624;2022-12-22T06:31:42;13.50;99.90
25450;DHT22;13371;52.080;5.624;2022-12-22T06:34:09;13.40;99.90
25450;DHT22;13371;52.080;5.624;2022-12-22T06:36:35;13.40;99.90
25450;DHT22;13371;52.080;5.624;2022-12-22T06:39:01;13.30;99.90
25450;DHT22;13371;52.080;5.624;2022-12-22T06:41:26;13.30;99.90
25450;DHT22;13371;52.080;5.624;2022-12-22T06:44:10;13.30;99.90
25450;DHT22;13371;52.080;5.624;2022-12-22T06:46:36;13.20;99.90
25450;DHT22;13371;52.080;5.624;2022-12-22T06:49:02;13.30;99.90
25450;DHT22;13371;52.080;5.624;2022-12-22T06:51:27;13.20;99.90
25450;DHT22;13371;52.080;5.624;2022-12-22T06:53:53;13.30;99.90
25450;DHT22;13371;52.080;5.624;2022-12-22T06:56:18;13.40;99.90
25450;DHT22;13371;52.080;5.624;2022-12-22T06:58:44;13.40;99.90
25450;DHT22;13371;52.080;5.624;2022-12-22T07:01:10;13.60;99.90
25450;DHT22;13371;52.080;5.624;2022-12-22T07:03:35;13.70;99.90
25450;DHT22;13371;52.080;5.624;2022-12-22T07:06:01;13.70;99.90
25450;DHT22;13371;52.080;5.624;2022-12-22T07:08:27;13.80;99.90
25450;DHT22;13371;52.080;5.624;2022-12-22T07:10:52;13.70;99.90
25450;DHT22;13371;52.080;5.624;2022-12-22T07:13:29;13.70;99.90
25450;DHT22;13371;52.080;5.624;2022-12-22T07:15:56;13.50;99.90
25450;DHT22;13371;52.080;5.624;2022-12-22T07:18:22;13.40;99.90
25450;DHT22;13371;52.080;5.624;2022-12-22T07:20:48;13.10;99.90
25450;DHT22;13371;52.080;5.624;2022-12-22T07:23:14;12.70;99.90
25450;DHT22;13371;52.080;5.624;2022-12-22T07:25:39;12.30;99.90
25450;DHT22;13371;52.080;5.624;2022-12-22T07:28:06;12.20;99.90
25450;DHT22;13371;52.080;5.624;2022-12-22T07:30:31;12.20;99.90
25450;DHT22;13371;52.080;5.624;2022-12-22T07:32:57;12.40;99.90
25450;DHT22;13371;52.080;5.624;2022-12-22T07:35:23;12.40;99.90
25450;DHT22;13371;52.080;5.624;2022-12-22T07:37:48;12.50;99.90
25450;DHT22;13371;52.080;5.624;2022-12-22T07:40:15;12.70;99.90
25450;DHT22;13371;52.080;5.624;2022-12-22T07:42:40;12.80;99.90
25450;DHT22;13371;52.080;5.624;2022-12-22T07:45:15;12.80;99.90
25450;DHT22;13371;52.080;5.624;2022-12-22T07:47:41;12.80;99.90
25450;DHT22;13371;52.080;5.624;2022-12-22T07:50:11;12.80;99.90
25450;DHT22;13371;52.080;5.624;2022-12-22T07:53:02;12.80;99.90
25450;DHT22;13371;52.080;5.624;2022-12-22T07:55:30;12.90;99.90
25450;DHT22;13371;52.080;5.624;2022-12-22T07:57:56;13.00;99.90
25450;DHT22;13371;52.080;5.624;2022-12-22T08:00:23;13.00;99.90
25450;DHT22;13371;52.080;5.624;2022-12-22T08:02:54;13.10;99.90
25450;DHT22;13371;52.080;5.624;2022-12-22T08:05:21;13.20;99.90
25450;DHT22;13371;52.080;5.624;2022-12-22T08:07:48;13.20;99.90
25450;DHT22;13371;52.080;5.624;2022-12-22T08:10:14;13.30;99.90
25450;DHT22;13371;52.080;5.624;2022-12-22T08:12:40;13.30;99.90
25450;DHT22;13371;52.080;5.624;2022-12-22T08:15:07;13.40;99.90
25450;DHT22;13371;52.080;5.624;2022-12-22T08:17:34;13.20;99.90
25450;DHT22;13371;52.080;5.624;2022-12-22T08:19:59;13.20;99.90
25450;DHT22;13371;52.080;5.624;2022-12-22T08:22:25;13.20;99.90
25450;DHT22;13371;52.080;5.624;2022-12-22T08:24:51;13.10;99.90
25450;DHT22;13371;52.080;5.624;2022-12-22T08:27:23;13.10;99.90
25450;DHT22;13371;52.080;5.624;2022-12-22T08:29:56;13.10;99.90
25450;DHT22;13371;52.080;5.624;2022-12-22T08:32:22;12.90;99.90
25450;DHT22;13371;52.080;5.624;2022-12-22T08:34:51;12.50;99.90
25450;DHT22;13371;52.080;5.624;2022-12-22T08:37:20;12.40;99.90
25450;DHT22;13371;52.080;5.624;2022-12-22T08:39:55;12.20;99.90
25450;DHT22;13371;52.080;5.624;2022-12-22T08:42:21;12.20;99.90
25450;DHT22;13371;52.080;5.624;2022-12-22T08:44:48;12.30;99.90
25450;DHT22;13371;52.080;5.624;2022-12-22T08:47:22;12.40;99.90
25450;DHT22;13371;52.080;5.624;2022-12-22T08:49:49;12.40;99.90
25450;DHT22;13371;52.080;5.624;2022-12-22T08:52:15;12.50;99.90
25450;DHT22;13371;52.080;5.624;2022-12-22T08:54:41;12.60;99.90
25450;DHT22;13371;52.080;5.624;2022-12-22T08:57:07;12.40;99.90
25450;DHT22;13371;52.080;5.624;2022-12-22T08:59:33;12.00;99.90
25450;DHT22;13371;52.080;5.624;2022-12-22T09:01:59;11.90;99.90
25450;DHT22;13371;52.080;5.624;2022-12-22T09:04:30;12.00;99.90
25450;DHT22;13371;52.080;5.624;2022-12-22T09:06:56;12.00;99.90
25450;DHT22;13371;52.080;5.624;2022-12-22T09:09:22;11.90;99.90
25450;DHT22;13371;52.080;5.624;2022-12-22T09:11:47;12.00;99.90
25450;DHT22;13371;52.080;5.624;2022-12-22T09:14:13;11.80;99.90
25450;DHT22;13371;52.080;5.624;2022-12-22T09:16:39;11.60;99.90
25450;DHT22;13371;52.080;5.624;2022-12-22T09:19:06;11.60;99.90
25450;DHT22;13371;52.080;5.624;2022-12-22T09:21:32;11.30;99.90
25450;DHT22;13371;52.080;5.624;2022-12-22T09:23:58;11.40;99.90
25450;DHT22;13371;52.080;5.624;2022-12-22T09:26:25;11.30;99.90
25450;DHT22;13371;52.080;5.624;2022-12-22T09:28:51;11.40;99.90
25450;DHT22;13371;52.080;5.624;2022-12-22T09:31:22;11.80;99.90
25450;DHT22;13371;52.080;5.624;2022-12-22T09:33:48;11.90;99.90
25450;DHT22;13371;52.080;5.624;2022-12-22T09:36:16;12.00;99.90
25450;DHT22;13371;52.080;5.624;2022-12-22T09:38:43;12.40;99.90
25450;DHT22;13371;52.080;5.624;2022-12-22T09:41:14;12.70;99.90
25450;DHT22;13371;52.080;5.624;2022-12-22T09:43:40;13.40;99.90
25450;DHT22;13371;52.080;5.624;2022-12-22T09:46:20;13.80;99.90
25450;DHT22;13371;52.080;5.624;2022-12-22T09:48:46;14.10;98.60
25450;DHT22;13371;52.080;5.624;2022-12-22T09:51:13;14.40;98.60
25450;DHT22;13371;52.080;5.624;2022-12-22T09:53:39;14.60;97.60
25450;DHT22;13371;52.080;5.624;2022-12-22T09:56:08;14.20;98.10
25450;DHT22;13371;52.080;5.624;2022-12-22T09:58:35;13.90;97.30
25450;DHT22;13371;52.080;5.624;2022-12-22T10:06:17;13.80;98.50
25450;DHT22;13371;52.080;5.624;2022-12-22T10:08:44;12.70;99.30
25450;DHT22;13371;52.080;5.624;2022-12-22T10:11:17;12.80;99.90
25450;DHT22;13371;52.080;5.624;2022-12-22T10:13:44;12.30;99.90
25450;DHT22;13371;52.080;5.624;2022-12-22T10:16:25;12.20;99.90
25450;DHT22;13371;52.080;5.624;2022-12-22T10:19:06;12.20;99.90
25450;DHT22;13371;52.080;5.624;2022-12-22T10:21:32;11.90;99.90
25450;DHT22;13371;52.080;5.624;2022-12-22T10:23:58;11.40;99.90
25450;DHT22;13371;52.080;5.624;2022-12-22T10:26:24;11.50;99.90
25450;DHT22;13371;52.080;5.624;2022-12-22T10:28:56;11.60;99.90
25450;DHT22;13371;52.080;5.624;2022-12-22T10:31:26;11.70;99.90
25450;DHT22;13371;52.080;5.624;2022-12-22T10:33:54;12.30;99.90
25450;DHT22;13371;52.080;5.624;2022-12-22T10:36:26;12.70;99.90
25450;DHT22;13371;52.080;5.624;2022-12-22T10:39:00;12.80;99.90
25450;DHT22;13371;52.080;5.624;2022-12-22T10:41:29;12.80;99.90
25450;DHT22;13371;52.080;5.624;2022-12-22T10:46:34;12.70;99.90
25450;DHT22;13371;52.080;5.624;2022-12-22T10:49:14;12.20;99.90
25450;DHT22;13371;52.080;5.624;2022-12-22T10:51:44;12.00;99.90
25450;DHT22;13371;52.080;5.624;2022-12-22T10:54:26;11.90;99.90
25450;DHT22;13371;52.080;5.624;2022-12-22T10:57:24;11.50;99.90
25450;DHT22;13371;52.080;5.624;2022-12-22T11:04:46;11.60;99.90
25450;DHT22;13371;52.080;5.624;2022-12-22T11:07:12;11.50;99.90
25450;DHT22;13371;52.080;5.624;2022-12-22T11:09:38;11.50;99.90
25450;DHT22;13371;52.080;5.624;2022-12-22T11:15:17;11.50;99.90
25450;DHT22;13371;52.080;5.624;2022-12-22T11:18:28;11.80;99.90
25450;DHT22;13371;52.080;5.624;2022-12-22T11:21:29;11.70;99.90
25450;DHT22;13371;52.080;5.624;2022-12-22T11:24:24;11.90;99.90
25450;DHT22;13371;52.080;5.624;2022-12-22T11:27:26;11.70;99.90
25450;DHT22;13371;52.080;5.624;2022-12-22T11:30:05;12.10;99.90
25450;DHT22;13371;52.080;5.624;2022-12-22T11:36:00;12.40;99.90
25450;DHT22;13371;52.080;5.624;2022-12-22T11:38:35;12.50;99.90
25450;DHT22;13371;52.080;5.624;2022-12-22T11:46:53;12.10;99.90
25450;DHT22;13371;52.080;5.624;2022-12-22T11:49:33;11.90;99.90
25450;DHT22;13371;52.080;5.624;2022-12-22T11:52:14;12.00;99.90
25450;DHT22;13371;52.080;5.624;2022-12-22T11:54:58;11.60;99.90
25450;DHT22;13371;52.080;5.624;2022-12-22T11:57:51;11.60;99.90
25450;DHT22;13371;52.080;5.624;2022-12-22T12:00:19;11.60;99.90
25450;DHT22;13371;52.080;5.624;2022-12-22T12:05:43;11.70;99.90
25450;DHT22;13371;52.080;5.624;2022-12-22T12:16:33;12.00;99.90
25450;DHT22;13371;52.080;5.624;2022-12-22T12:21:27;12.00;99.90
25450;DHT22;13371;52.080;5.624;2022-12-22T12:29:26;12.20;99.90
25450;DHT22;13371;52.080;5.624;2022-12-22T12:32:10;11.90;99.90
25450;DHT22;13371;52.080;5.624;2022-12-22T12:34:40;11.90;99.90
25450;DHT22;13371;52.080;5.624;2022-12-22T12:37:29;11.90;99.90
25450;DHT22;13371;52.080;5.624;2022-12-22T12:42:46;11.90;99.90
25450;DHT22;13371;52.080;5.624;2022-12-22T12:45:35;11.70;99.90
25450;DHT22;13371;52.080;5.624;2022-12-22T12:50:55;11.60;99.90
25450;DHT22;13371;52.080;5.624;2022-12-22T12:53:22;11.50;99.90
25450;DHT22;13371;52.080;5.624;2022-12-22T13:05:59;11.20;99.90
25450;DHT22;13371;52.080;5.624;2022-12-22T13:11:29;11.40;99.90
25450;DHT22;13371;52.080;5.624;2022-12-22T13:13:55;11.20;99.90
25450;DHT22;13371;52.080;5.624;2022-12-22T13:16:24;11.00;99.90
25450;DHT22;13371;52.080;5.624;2022-12-22T13:18:51;10.80;99.90
25450;DHT22;13371;52.080;5.624;2022-12-22T13:21:23;10.90;99.90
25450;DHT22;13371;52.080;5.624;2022-12-22T13:26:25;10.80;99.90
25450;DHT22;13371;52.080;5.624;2022-12-22T13:29:17;10.80;99.90
25450;DHT22;13371;52.080;5.624;2022-12-22T13:31:59;10.60;99.90
25450;DHT22;13371;52.080;5.624;2022-12-22T13:37:17;10.40;99.90
25450;DHT22;13371;52.080;5.624;2022-12-22T13:40:10;10.40;99.90
25450;DHT22;13371;52.080;5.624;2022-12-22T13:42:51;10.70;99.90
25450;DHT22;13371;52.080;5.624;2022-12-22T13:45:40;10.60;99.90
25450;DHT22;13371;52.080;5.624;2022-12-22T13:48:28;10.60;99.90
25450;DHT22;13371;52.080;5.624;2022-12-22T13:50:59;10.60;99.90
25450;DHT22;13371;52.080;5.624;2022-12-22T13:53:37;10.90;99.90
25450;DHT22;13371;52.080;5.624;2022-12-22T13:56:24;10.80;99.90
25450;DHT22;13371;52.080;5.624;2022-12-22T13:58:56;10.80;99.90
25450;DHT22;13371;52.080;5.624;2022-12-22T14:01:23;10.90;99.90
25450;DHT22;13371;52.080;5.624;2022-12-22T14:03:57;10.90;99.90
25450;DHT22;13371;52.080;5.624;2022-12-22T14:06:34;10.50;99.90
25450;DHT22;13371;52.080;5.624;2022-12-22T14:09:16;10.70;99.90
25450;DHT22;13371;52.080;5.624;2022-12-22T14:12:06;10.90;99.90
25450;DHT22;13371;52.080;5.624;2022-12-22T14:17:02;10.80;99.90
25450;DHT22;13371;52.080;5.624;2022-12-22T14:19:35;10.70;99.90
25450;DHT22;13371;52.080;5.624;2022-12-22T14:22:09;11.00;99.90
25450;DHT22;13371;52.080;5.624;2022-12-22T14:25:06;11.00;99.90
25450;DHT22;13371;52.080;5.624;2022-12-22T14:27:37;11.20;99.90
25450;DHT22;13371;52.080;5.624;2022-12-22T14:30:17;11.20;99.90
25450;DHT22;13371;52.080;5.624;2022-12-22T14:32:45;11.40;99.90
25450;DHT22;13371;52.080;5.624;2022-12-22T14:40:39;11.50;99.90
25450;DHT22;13371;52.080;5.624;2022-12-22T14:43:26;11.40;99.90
25450;DHT22;13371;52.080;5.624;2022-12-22T14:46:04;11.60;99.90
25450;DHT22;13371;52.080;5.624;2022-12-22T14:48:37;11.60;99.90
25450;DHT22;13371;52.080;5.624;2022-12-22T14:51:04;11.50;99.90
25450;DHT22;13371;52.080;5.624;2022-12-22T14:53:43;11.50;99.90
25450;DHT22;13371;52.080;5.624;2022-12-22T14:56:14;11.60;99.90
25450;DHT22;13371;52.080;5.624;2022-12-22T14:58:42;11.70;99.90
25450;DHT22;13371;52.080;5.624;2022-12-22T15:01:23;11.80;99.90
25450;DHT22;13371;52.080;5.624;2022-12-22T15:04:04;11.90;99.90
25450;DHT22;13371;52.080;5.624;2022-12-22T15:06:33;11.90;99.90
25450;DHT22;13371;52.080;5.624;2022-12-22T15:09:22;11.90;99.90
25450;DHT22;13371;52.080;5.624;2022-12-22T15:11:52;11.90;99.90
25450;DHT22;13371;52.080;5.624;2022-12-22T15:14:21;11.90;99.90
25450;DHT22;13371;52.080;5.624;2022-12-22T15:16:47;11.90;99.90
25450;DHT22;13371;52.080;5.624;2022-12-22T15:19:15;11.90;99.90
25450;DHT22;13371;52.080;5.624;2022-12-22T15:21:41;11.30;99.90
25450;DHT22;13371;52.080;5.624;2022-12-22T15:24:15;11.10;99.90
25450;DHT22;13371;52.080;5.624;2022-12-22T15:26:44;10.80;99.90
25450;DHT22;13371;52.080;5.624;2022-12-22T15:29:10;10.90;99.90
25450;DHT22;13371;52.080;5.624;2022-12-22T15:31:37;10.90;99.90
25450;DHT22;13371;52.080;5.624;2022-12-22T15:34:08;11.00;99.90
25450;DHT22;13371;52.080;5.624;2022-12-22T15:36:35;11.30;99.90
25450;DHT22;13371;52.080;5.624;2022-12-22T15:39:01;11.30;99.90
25450;DHT22;13371;52.080;5.624;2022-12-22T15:41:26;11.50;99.90
25450;DHT22;13371;52.080;5.624;2022-12-22T15:43:52;11.40;99.90
25450;DHT22;13371;52.080;5.624;2022-12-22T15:46:18;11.60;99.90
25450;DHT22;13371;52.080;5.624;2022-12-22T15:48:44;11.20;99.90
25450;DHT22;13371;52.080;5.624;2022-12-22T15:51:20;11.30;99.90
25450;DHT22;13371;52.080;5.624;2022-12-22T15:53:46;11.20;99.90
25450;DHT22;13371;52.080;5.624;2022-12-22T15:56:17;11.20;99.90
25450;DHT22;13371;52.080;5.624;2022-12-22T15:58:44;11.10;99.90
25450;DHT22;13371;52.080;5.624;2022-12-22T16:01:11;10.80;99.90
25450;DHT22;13371;52.080;5.624;2022-12-22T16:03:37;10.70;99.90
25450;DHT22;13371;52.080;5.624;2022-12-22T16:06:03;10.60;99.90
25450;DHT22;13371;52.080;5.624;2022-12-22T16:08:31;10.40;99.90
25450;DHT22;13371;52.080;5.624;2022-12-22T16:10:57;10.70;99.90
25450;DHT22;13371;52.080;5.624;2022-12-22T16:13:26;10.60;99.90
25450;DHT22;13371;52.080;5.624;2022-12-22T16:15:52;10.50;99.90
25450;DHT22;13371;52.080;5.624;2022-12-22T16:18:17;10.80;99.90
25450;DHT22;13371;52.080;5.624;2022-12-22T16:20:43;10.90;99.90
25450;DHT22;13371;52.080;5.624;2022-12-22T16:23:15;10.80;99.90
25450;DHT22;13371;52.080;5.624;2022-12-22T16:25:42;10.60;99.90
25450;DHT22;13371;52.080;5.624;2022-12-22T16:28:19;10.90;99.90
25450;DHT22;13371;52.080;5.624;2022-12-22T16:30:45;11.20;99.90
25450;DHT22;13371;52.080;5.624;2022-12-22T16:33:11;10.90;99.90
25450;DHT22;13371;52.080;5.624;2022-12-22T16:35:37;10.60;99.90
25450;DHT22;13371;52.080;5.624;2022-12-22T16:38:03;10.40;99.90
25450;DHT22;13371;52.080;5.624;2022-12-22T16:40:30;10.60;99.90
25450;DHT22;13371;52.080;5.624;2022-12-22T16:43:06;10.20;99.90
25450;DHT22;13371;52.080;5.624;2022-12-22T16:45:36;10.30;99.90
25450;DHT22;13371;52.080;5.624;2022-12-22T16:48:11;10.00;99.90
25450;DHT22;13371;52.080;5.624;2022-12-22T16:50:37;9.50;99.90
25450;DHT22;13371;52.080;5.624;2022-12-22T16:53:04;9.20;99.90
25450;DHT22;13371;52.080;5.624;2022-12-22T16:55:30;9.40;99.90
25450;DHT22;13371;52.080;5.624;2022-12-22T16:57:56;9.70;99.90
25450;DHT22;13371;52.080;5.624;2022-12-22T17:00:27;9.90;99.90
25450;DHT22;13371;52.080;5.624;2022-12-22T17:02:57;9.90;99.90
25450;DHT22;13371;52.080;5.624;2022-12-22T17:06:08;9.60;99.90
25450;DHT22;13371;52.080;5.624;2022-12-22T17:08:26;9.60;99.90
25450;DHT22;13371;52.080;5.624;2022-12-22T17:10:54;9.70;99.90
25450;DHT22;13371;52.080;5.624;2022-12-22T17:13:21;9.80;99.90
25450;DHT22;13371;52.080;5.624;2022-12-22T17:15:47;10.00;99.90
25450;DHT22;13371;52.080;5.624;2022-12-22T17:18:22;10.40;99.90
25450;DHT22;13371;52.080;5.624;2022-12-22T17:20:50;10.50;99.90
25450;DHT22;13371;52.080;5.624;2022-12-22T17:25:48;9.90;99.90
25450;DHT22;13371;52.080;5.624;2022-12-22T17:28:13;9.80;99.90
25450;DHT22;13371;52.080;5.624;2022-12-22T17:30:42;9.70;99.90
25450;DHT22;13371;52.080;5.624;2022-12-22T17:33:14;9.70;99.90
25450;DHT22;13371;52.080;5.624;2022-12-22T17:35:44;9.60;99.90
25450;DHT22;13371;52.080;5.624;2022-12-22T17:38:16;9.70;99.90
25450;DHT22;13371;52.080;5.624;2022-12-22T17:40:43;10.10;99.90
25450;DHT22;13371;52.080;5.624;2022-12-22T17:43:15;10.10;99.90